AVA9276 SKRG-SKMR
Flight info
| Callsign | AVA9276 |
|---|---|
| Flight time | 0h 31m |
| Altitude | 22000 |
| Route | BUTAL3A BUTAL BUTAL2E |
| Aircraft | A320/M-SDE3FGHIRWY/LB1 |
Departure
| Time | 2026-05-06 14:38 |
|---|---|
| Airport | Jose Maria Córdova International Airport (SKRG) |
Arrival
| Time | 2026-05-06 15:09 |
|---|---|
| Airport | Los Garzones Airport (SKMR) |
| Time | Latitude | Longitude | Altitude | Speed | Heading |
|---|---|---|---|---|---|
| 2026-05-06 14:13 | 6.17106 | -75.42685 | 7016 ft | 0 kts | 280° |
| 2026-05-06 14:30 | 6.17106 | -75.42684 | 7019 ft | 1 kts | 280° |
| 2026-05-06 14:30 | 6.17102 | -75.42663 | 7021 ft | 3 kts | 279° |
| 2026-05-06 14:30 | 6.17099 | -75.42643 | 7019 ft | 3 kts | 270° |
| 2026-05-06 14:31 | 6.17103 | -75.42625 | 7017 ft | 3 kts | 217° |
| 2026-05-06 14:31 | 6.17123 | -75.42617 | 7016 ft | 3 kts | 186° |
| 2026-05-06 14:31 | 6.17145 | -75.42616 | 7016 ft | 3 kts | 178° |
| 2026-05-06 14:31 | 6.17155 | -75.42617 | 7016 ft | 0 kts | 177° |
| 2026-05-06 14:33 | 6.17121 | -75.42615 | 7016 ft | 11 kts | 177° |
| 2026-05-06 14:34 | 6.17032 | -75.42583 | 7021 ft | 18 kts | 147° |
| 2026-05-06 14:34 | 6.16910 | -75.42510 | 7020 ft | 23 kts | 149° |
| 2026-05-06 14:34 | 6.16754 | -75.42482 | 7013 ft | 26 kts | 180° |
| 2026-05-06 14:34 | 6.16556 | -75.42484 | 7002 ft | 28 kts | 179° |
| 2026-05-06 14:35 | 6.16364 | -75.42482 | 6992 ft | 28 kts | 179° |
| 2026-05-06 14:35 | 6.16188 | -75.42481 | 6983 ft | 25 kts | 180° |
| 2026-05-06 14:35 | 6.16018 | -75.42480 | 6983 ft | 26 kts | 180° |
| 2026-05-06 14:35 | 6.15832 | -75.42479 | 6981 ft | 27 kts | 180° |
| 2026-05-06 14:36 | 6.15641 | -75.42477 | 6980 ft | 27 kts | 179° |
| 2026-05-06 14:36 | 6.15447 | -75.42476 | 6979 ft | 29 kts | 180° |
| 2026-05-06 14:36 | 6.15258 | -75.42475 | 6978 ft | 27 kts | 180° |
| 2026-05-06 14:36 | 6.15065 | -75.42473 | 6978 ft | 29 kts | 179° |
| 2026-05-06 14:37 | 6.14939 | -75.42471 | 6977 ft | 12 kts | 173° |
| 2026-05-06 14:37 | 6.14899 | -75.42403 | 6977 ft | 14 kts | 88° |
| 2026-05-06 14:37 | 6.14948 | -75.42320 | 6977 ft | 16 kts | 33° |
| 2026-05-06 14:37 | 6.15082 | -75.42305 | 6979 ft | 31 kts | 360° |
| 2026-05-06 14:38 | 6.15559 | -75.42308 | 6981 ft | 104 kts | 359° |
| 2026-05-06 14:38 | 6.16486 | -75.42313 | 6995 ft | 159 kts | 360° |
| 2026-05-06 14:38 | 6.17684 | -75.42318 | 7456 ft | 174 kts | 0° |
| 2026-05-06 14:38 | 6.18889 | -75.42323 | 8250 ft | 174 kts | 360° |
| 2026-05-06 14:39 | 6.20114 | -75.42324 | 8773 ft | 177 kts | 359° |
| 2026-05-06 14:39 | 6.21344 | -75.42327 | 9403 ft | 177 kts | 0° |
| 2026-05-06 14:39 | 6.22595 | -75.42334 | 9929 ft | 180 kts | 1° |
| 2026-05-06 14:39 | 6.23870 | -75.42329 | 10371 ft | 192 kts | 2° |
| 2026-05-06 14:40 | 6.25288 | -75.42307 | 10587 ft | 215 kts | 1° |
| 2026-05-06 14:40 | 6.26874 | -75.42319 | 10863 ft | 241 kts | 0° |
| 2026-05-06 14:40 | 6.28632 | -75.42344 | 11228 ft | 265 kts | 0° |
| 2026-05-06 14:40 | 6.30559 | -75.42373 | 11642 ft | 289 kts | 0° |
| 2026-05-06 14:41 | 6.32643 | -75.42401 | 12191 ft | 306 kts | 0° |
| 2026-05-06 14:41 | 6.34797 | -75.42415 | 13011 ft | 313 kts | 1° |
| 2026-05-06 14:41 | 6.36992 | -75.42406 | 13845 ft | 317 kts | 2° |
| 2026-05-06 14:41 | 6.39175 | -75.42383 | 14642 ft | 319 kts | 2° |
| 2026-05-06 14:42 | 6.41407 | -75.42353 | 15469 ft | 322 kts | 3° |
| 2026-05-06 14:42 | 6.43664 | -75.42326 | 16278 ft | 326 kts | 2° |
| 2026-05-06 14:42 | 6.45945 | -75.42343 | 17059 ft | 331 kts | 1° |
| 2026-05-06 14:42 | 6.48322 | -75.42392 | 17266 ft | 353 kts | 1° |
| 2026-05-06 14:43 | 6.50854 | -75.42461 | 17484 ft | 372 kts | 1° |
| 2026-05-06 14:43 | 6.53475 | -75.42539 | 18020 ft | 381 kts | 0° |
| 2026-05-06 14:43 | 6.56139 | -75.42617 | 18683 ft | 385 kts | 1° |
| 2026-05-06 14:43 | 6.58828 | -75.42693 | 19321 ft | 389 kts | 0° |
| 2026-05-06 14:44 | 6.61545 | -75.42765 | 19959 ft | 392 kts | 0° |
| 2026-05-06 14:44 | 6.64285 | -75.42832 | 20580 ft | 396 kts | 0° |
| 2026-05-06 14:44 | 6.67047 | -75.42898 | 21171 ft | 398 kts | 0° |
| 2026-05-06 14:45 | 6.72636 | -75.43026 | 22158 ft | 405 kts | 360° |
| 2026-05-06 14:45 | 6.75455 | -75.43092 | 22267 ft | 406 kts | 360° |
| 2026-05-06 14:45 | 6.78281 | -75.43160 | 22286 ft | 407 kts | 360° |
| 2026-05-06 14:45 | 6.81111 | -75.43229 | 22283 ft | 407 kts | 360° |
| 2026-05-06 14:46 | 6.83943 | -75.43298 | 22274 ft | 407 kts | 360° |
| 2026-05-06 14:46 | 6.86776 | -75.43367 | 22275 ft | 407 kts | 360° |
| 2026-05-06 14:46 | 6.89603 | -75.43436 | 22265 ft | 407 kts | 360° |
| 2026-05-06 14:46 | 6.92433 | -75.43505 | 22264 ft | 407 kts | 360° |
| 2026-05-06 14:47 | 6.95260 | -75.43576 | 22257 ft | 407 kts | 360° |
| 2026-05-06 14:47 | 6.98088 | -75.43645 | 22256 ft | 406 kts | 360° |
| 2026-05-06 14:47 | 7.00875 | -75.43710 | 22255 ft | 406 kts | 360° |
| 2026-05-06 14:47 | 7.03704 | -75.43775 | 22253 ft | 406 kts | 360° |
| 2026-05-06 14:48 | 7.06528 | -75.43840 | 22254 ft | 406 kts | 360° |
| 2026-05-06 14:48 | 7.09355 | -75.43906 | 22252 ft | 406 kts | 0° |
| 2026-05-06 14:48 | 7.12180 | -75.43973 | 22250 ft | 406 kts | 360° |
| 2026-05-06 14:48 | 7.15005 | -75.44039 | 22245 ft | 406 kts | 360° |
| 2026-05-06 14:49 | 7.17834 | -75.44104 | 22242 ft | 407 kts | 360° |
| 2026-05-06 14:49 | 7.20661 | -75.44168 | 22239 ft | 406 kts | 360° |
| 2026-05-06 14:49 | 7.23489 | -75.44235 | 22231 ft | 406 kts | 360° |
| 2026-05-06 14:49 | 7.26314 | -75.44305 | 22213 ft | 406 kts | 360° |
| 2026-05-06 14:50 | 7.29137 | -75.44374 | 22211 ft | 406 kts | 360° |
| 2026-05-06 14:50 | 7.31964 | -75.44442 | 22209 ft | 406 kts | 360° |
| 2026-05-06 14:50 | 7.34790 | -75.44509 | 22208 ft | 406 kts | 360° |
| 2026-05-06 14:50 | 7.37616 | -75.44577 | 22204 ft | 406 kts | 360° |
| 2026-05-06 14:51 | 7.40440 | -75.44645 | 22204 ft | 406 kts | 360° |
| 2026-05-06 14:51 | 7.43268 | -75.44713 | 22198 ft | 406 kts | 360° |
| 2026-05-06 14:51 | 7.46090 | -75.44783 | 22192 ft | 406 kts | 360° |
| 2026-05-06 14:51 | 7.48915 | -75.44852 | 22185 ft | 406 kts | 360° |
| 2026-05-06 14:52 | 7.51740 | -75.44919 | 22178 ft | 406 kts | 360° |
| 2026-05-06 14:52 | 7.54562 | -75.44985 | 22175 ft | 406 kts | 360° |
| 2026-05-06 14:52 | 7.57386 | -75.45051 | 22169 ft | 406 kts | 360° |
| 2026-05-06 14:52 | 7.60209 | -75.45117 | 22163 ft | 406 kts | 360° |
| 2026-05-06 14:53 | 7.63036 | -75.45184 | 22160 ft | 406 kts | 360° |
| 2026-05-06 14:53 | 7.65827 | -75.45250 | 22154 ft | 406 kts | 360° |
| 2026-05-06 14:53 | 7.68652 | -75.45355 | 22137 ft | 406 kts | 355° |
| 2026-05-06 14:53 | 7.71384 | -75.45925 | 21892 ft | 397 kts | 347° |
| 2026-05-06 14:54 | 7.74039 | -75.46624 | 21642 ft | 393 kts | 347° |
| 2026-05-06 14:54 | 7.76663 | -75.47327 | 21290 ft | 387 kts | 347° |
| 2026-05-06 14:54 | 7.79255 | -75.48025 | 20772 ft | 384 kts | 347° |
| 2026-05-06 14:54 | 7.81834 | -75.48718 | 20231 ft | 382 kts | 347° |
| 2026-05-06 14:55 | 7.84405 | -75.49404 | 19656 ft | 382 kts | 347° |
| 2026-05-06 14:55 | 7.86975 | -75.50073 | 19115 ft | 380 kts | 348° |
| 2026-05-06 14:55 | 7.89541 | -75.50717 | 18576 ft | 379 kts | 349° |
| 2026-05-06 14:55 | 7.92095 | -75.51346 | 18040 ft | 377 kts | 349° |
| 2026-05-06 14:56 | 7.94638 | -75.51971 | 17501 ft | 376 kts | 349° |
| 2026-05-06 14:56 | 7.97176 | -75.52598 | 16972 ft | 374 kts | 348° |
| 2026-05-06 14:56 | 7.99697 | -75.53223 | 16449 ft | 373 kts | 348° |
| 2026-05-06 14:56 | 8.02212 | -75.53849 | 15931 ft | 371 kts | 348° |
| 2026-05-06 14:57 | 8.04716 | -75.54474 | 15417 ft | 370 kts | 348° |
| 2026-05-06 14:57 | 8.07210 | -75.55099 | 14903 ft | 368 kts | 348° |
| 2026-05-06 14:57 | 8.09693 | -75.55723 | 14405 ft | 366 kts | 347° |
| 2026-05-06 14:57 | 8.12150 | -75.56340 | 13933 ft | 363 kts | 347° |
| 2026-05-06 14:58 | 8.14561 | -75.56944 | 13431 ft | 361 kts | 347° |
| 2026-05-06 14:58 | 8.17022 | -75.57561 | 12904 ft | 359 kts | 347° |
| 2026-05-06 14:58 | 8.19403 | -75.58158 | 12384 ft | 357 kts | 347° |
| 2026-05-06 14:58 | 8.21807 | -75.58760 | 11859 ft | 355 kts | 347° |
| 2026-05-06 14:59 | 8.24195 | -75.59356 | 11324 ft | 353 kts | 347° |
| 2026-05-06 14:59 | 8.26563 | -75.59945 | 10800 ft | 350 kts | 347° |
| 2026-05-06 14:59 | 8.28918 | -75.60531 | 10359 ft | 345 kts | 347° |
| 2026-05-06 14:59 | 8.31200 | -75.61099 | 10226 ft | 331 kts | 347° |
| 2026-05-06 15:00 | 8.33389 | -75.61645 | 10100 ft | 318 kts | 347° |
| 2026-05-06 15:00 | 8.35490 | -75.62170 | 9942 ft | 306 kts | 347° |
| 2026-05-06 15:00 | 8.37550 | -75.62686 | 9496 ft | 306 kts | 347° |
| 2026-05-06 15:00 | 8.39595 | -75.63197 | 9171 ft | 301 kts | 347° |
| 2026-05-06 15:01 | 8.41620 | -75.63702 | 8737 ft | 299 kts | 347° |
| 2026-05-06 15:01 | 8.43642 | -75.64207 | 8238 ft | 300 kts | 347° |
| 2026-05-06 15:01 | 8.45668 | -75.64713 | 7760 ft | 299 kts | 347° |
| 2026-05-06 15:01 | 8.47679 | -75.65215 | 7332 ft | 296 kts | 347° |
| 2026-05-06 15:02 | 8.49674 | -75.65712 | 6901 ft | 294 kts | 347° |
| 2026-05-06 15:02 | 8.51652 | -75.66205 | 6486 ft | 291 kts | 347° |
| 2026-05-06 15:02 | 8.53603 | -75.66692 | 5900 ft | 286 kts | 347° |
| 2026-05-06 15:02 | 8.55524 | -75.67173 | 5155 ft | 283 kts | 346° |
| 2026-05-06 15:03 | 8.57425 | -75.67649 | 4407 ft | 280 kts | 346° |
| 2026-05-06 15:03 | 8.59306 | -75.68122 | 3653 ft | 277 kts | 346° |
| 2026-05-06 15:03 | 8.61151 | -75.68583 | 3146 ft | 266 kts | 346° |
| 2026-05-06 15:03 | 8.62866 | -75.69008 | 3014 ft | 242 kts | 345° |
| 2026-05-06 15:04 | 8.64429 | -75.69396 | 3009 ft | 223 kts | 345° |
| 2026-05-06 15:04 | 8.65889 | -75.69760 | 3011 ft | 209 kts | 345° |
| 2026-05-06 15:04 | 8.67264 | -75.70103 | 3010 ft | 199 kts | 345° |
| 2026-05-06 15:04 | 8.68586 | -75.70438 | 3029 ft | 190 kts | 341° |
| 2026-05-06 15:05 | 8.69698 | -75.71016 | 3012 ft | 172 kts | 319° |
| 2026-05-06 15:05 | 8.70540 | -75.71775 | 2977 ft | 156 kts | 316° |
| 2026-05-06 15:05 | 8.71323 | -75.72490 | 2845 ft | 146 kts | 316° |
| 2026-05-06 15:05 | 8.72060 | -75.73164 | 2661 ft | 140 kts | 316° |
| 2026-05-06 15:06 | 8.72778 | -75.73819 | 2470 ft | 138 kts | 317° |
| 2026-05-06 15:06 | 8.73491 | -75.74471 | 2292 ft | 138 kts | 317° |
| 2026-05-06 15:06 | 8.74198 | -75.75118 | 2092 ft | 137 kts | 317° |
| 2026-05-06 15:06 | 8.74900 | -75.75761 | 1897 ft | 136 kts | 317° |
| 2026-05-06 15:07 | 8.75602 | -75.76404 | 1714 ft | 135 kts | 317° |
| 2026-05-06 15:07 | 8.76298 | -75.77040 | 1520 ft | 135 kts | 317° |
| 2026-05-06 15:07 | 8.76989 | -75.77674 | 1345 ft | 134 kts | 317° |
| 2026-05-06 15:07 | 8.77676 | -75.78305 | 1153 ft | 133 kts | 317° |
| 2026-05-06 15:08 | 8.78358 | -75.78932 | 926 ft | 132 kts | 317° |
| 2026-05-06 15:08 | 8.79039 | -75.79554 | 712 ft | 132 kts | 317° |
| 2026-05-06 15:08 | 8.79721 | -75.80178 | 514 ft | 132 kts | 317° |
| 2026-05-06 15:08 | 8.80404 | -75.80800 | 323 ft | 132 kts | 317° |
| 2026-05-06 15:09 | 8.81084 | -75.81425 | 166 ft | 133 kts | 318° |
| 2026-05-06 15:09 | 8.81538 | -75.81837 | 59 ft | 132 kts | 317° |
| 2026-05-06 15:09 | 8.82134 | -75.82381 | 30 ft | 74 kts | 318° |
| 2026-05-06 15:09 | 8.82401 | -75.82624 | 30 ft | 29 kts | 318° |
| 2026-05-06 15:10 | 8.82458 | -75.82637 | 30 ft | 7 kts | 58° |
| 2026-05-06 15:10 | 8.82460 | -75.82589 | 31 ft | 6 kts | 92° |
| 2026-05-06 15:10 | 8.82458 | -75.82552 | 32 ft | 0 kts | 92° |
| 2026-05-06 15:11 | 8.82458 | -75.82549 | 32 ft | 3 kts | 92° |
| 2026-05-06 15:11 | 8.82465 | -75.82522 | 32 ft | 5 kts | 54° |
| 2026-05-06 15:11 | 8.82483 | -75.82501 | 32 ft | 1 kts | 47° |
| 2026-05-06 15:11 | 8.82486 | -75.82498 | 32 ft | 0 kts | 47° |